createdAt,value
2018-07-26T00:00:21.498Z,84.65
2018-07-26T00:02:50.418Z,84.54
2018-07-26T00:05:19.075Z,84.80
2018-07-26T00:07:47.124Z,85.32
2018-07-26T00:10:16.030Z,85.70
2018-07-26T00:12:43.789Z,85.78
2018-07-26T00:15:12.706Z,86.94
2018-07-26T00:17:41.601Z,86.91
2018-07-26T00:20:09.346Z,87.29
2018-07-26T00:22:37.681Z,87.02
2018-07-26T00:25:06.050Z,87.61
2018-07-26T00:27:35.532Z,87.66
2018-07-26T00:30:03.291Z,88.30
2018-07-26T00:32:32.205Z,88.33
2018-07-26T00:35:00.774Z,88.24
2018-07-26T00:37:28.879Z,88.06
2018-07-26T00:39:56.646Z,87.55
2018-07-26T00:42:25.558Z,86.71
2018-07-26T00:44:53.898Z,85.80
2018-07-26T00:47:21.662Z,85.15
2018-07-26T00:49:50.578Z,84.79
2018-07-26T00:52:18.340Z,84.45
2018-07-26T00:54:46.677Z,84.50
2018-07-26T00:57:15.030Z,84.48
2018-07-26T00:59:43.942Z,84.58
2018-07-26T01:02:11.733Z,84.24
2018-07-26T01:04:40.649Z,84.08
2018-07-26T01:07:09.808Z,83.94
2018-07-26T01:09:38.078Z,83.58
2018-07-26T01:12:06.867Z,83.46
2018-07-26T01:14:34.633Z,83.33
2018-07-26T01:17:02.985Z,83.30
2018-07-26T01:19:31.905Z,83.44
2018-07-26T01:21:59.664Z,83.33
2018-07-26T01:24:28.580Z,83.46
2018-07-26T01:26:56.338Z,83.55
2018-07-26T01:29:24.678Z,83.38
2018-07-26T01:31:53.592Z,83.42
2018-07-26T01:34:21.369Z,83.38
2018-07-26T01:36:49.711Z,83.43
2018-07-26T01:39:18.078Z,83.36
2018-07-26T01:41:46.986Z,83.68
2018-07-26T01:44:14.743Z,83.73
2018-07-26T01:46:43.671Z,84.01
2018-07-26T01:49:12.550Z,84.07
2018-07-26T01:51:40.117Z,84.28
2018-07-26T01:54:08.422Z,84.23
2018-07-26T01:56:36.787Z,84.20
2018-07-26T01:59:05.697Z,84.11
2018-07-26T02:01:34.078Z,84.05
2018-07-26T02:04:02.585Z,84.26
2018-07-26T02:06:30.117Z,84.20
2018-07-26T02:08:59.058Z,84.40
2018-07-26T02:11:26.829Z,84.38
2018-07-26T02:13:55.984Z,84.42
2018-07-26T02:16:23.912Z,84.52
2018-07-26T02:18:52.092Z,84.56
2018-07-26T02:21:21.005Z,84.31
2018-07-26T02:23:48.816Z,84.32
2018-07-26T02:26:17.095Z,84.29
2018-07-26T02:28:46.025Z,84.34
2018-07-26T02:31:14.079Z,83.99
2018-07-26T02:33:42.702Z,84.14
2018-07-26T02:36:11.041Z,84.39
2018-07-26T02:38:39.394Z,84.64
2018-07-26T02:41:07.727Z,84.78
2018-07-26T02:43:36.240Z,84.86
2018-07-26T02:46:05.192Z,85.05
2018-07-26T02:48:32.942Z,85.08
2018-07-26T02:51:01.269Z,84.88
2018-07-26T02:53:29.916Z,84.88
2018-07-26T02:55:58.538Z,84.96
2018-07-26T02:58:26.878Z,85.06
2018-07-26T03:00:55.214Z,85.15
2018-07-26T03:03:22.966Z,85.29
2018-07-26T03:05:51.873Z,85.55
2018-07-26T03:08:20.242Z,85.36
2018-07-26T03:10:48.645Z,85.54
2018-07-26T03:13:16.967Z,85.48
2018-07-26T03:15:45.303Z,85.86
2018-07-26T03:18:13.648Z,86.01
2018-07-26T03:20:41.400Z,86.12
2018-07-26T03:23:10.344Z,86.01
2018-07-26T03:25:38.675Z,85.81
2018-07-26T03:28:06.465Z,85.80
2018-07-26T03:30:34.802Z,86.65
2018-07-26T03:33:03.725Z,87.20
2018-07-26T03:35:32.385Z,87.45
2018-07-26T03:38:00.726Z,87.49
2018-07-26T03:40:29.089Z,87.44
2018-07-26T03:42:57.442Z,87.33
2018-07-26T03:45:25.801Z,87.09
2018-07-26T03:47:55.592Z,87.14
2018-07-26T03:50:23.449Z,87.26
2018-07-26T03:52:52.343Z,86.89
2018-07-26T03:55:20.395Z,86.28
2018-07-26T03:57:48.621Z,85.15
2018-07-26T04:00:20.867Z,84.03
2018-07-26T04:02:48.794Z,83.19
2018-07-26T04:05:17.106Z,82.64
2018-07-26T04:07:45.905Z,82.28
2018-07-26T04:10:13.656Z,82.21
2018-07-26T04:12:42.271Z,82.56
2018-07-26T04:15:12.161Z,82.53
2018-07-26T04:17:39.913Z,82.16
2018-07-26T04:20:08.916Z,82.29
2018-07-26T04:22:36.580Z,82.33
2018-07-26T04:25:04.927Z,82.24
2018-07-26T04:27:33.851Z,82.04
2018-07-26T04:30:01.909Z,81.94
2018-07-26T04:32:30.237Z,81.95
2018-07-26T04:34:58.581Z,81.95
2018-07-26T04:37:26.912Z,81.78
2018-07-26T04:39:55.255Z,81.62
2018-07-26T04:42:23.686Z,81.65
2018-07-26T04:44:51.929Z,81.81
2018-07-26T04:47:20.272Z,82.09
2018-07-26T04:49:49.175Z,82.12
2018-07-26T04:52:16.944Z,82.02
2018-07-26T04:54:45.857Z,81.82
2018-07-26T04:57:13.614Z,81.83
2018-07-26T04:59:42.522Z,82.02
2018-07-26T05:02:10.763Z,82.12
2018-07-26T05:04:39.852Z,81.93
2018-07-26T05:07:08.371Z,81.86
2018-07-26T05:09:36.703Z,81.71
2018-07-26T05:12:04.459Z,81.40
2018-07-26T05:14:33.393Z,81.21
2018-07-26T05:17:01.732Z,80.92
2018-07-26T05:19:30.922Z,80.75
2018-07-26T05:21:58.056Z,80.80
2018-07-26T05:24:27.025Z,80.91
2018-07-26T05:26:55.377Z,80.89
2018-07-26T05:29:23.738Z,80.61
2018-07-26T05:31:51.492Z,80.60
2018-07-26T05:34:20.431Z,80.72
2018-07-26T05:36:48.780Z,80.52
2018-07-26T05:39:16.543Z,80.07
2018-07-26T05:41:45.549Z,79.79
2018-07-26T05:44:13.907Z,79.56
2018-07-26T05:46:42.267Z,79.48
2018-07-26T05:49:10.623Z,79.13
2018-07-26T05:51:38.958Z,78.83
2018-07-26T05:54:06.714Z,78.52
2018-07-26T05:56:35.627Z,78.41
2018-07-26T05:59:03.970Z,78.35
2018-07-26T06:01:32.325Z,78.20
2018-07-26T06:04:00.692Z,78.03
2018-07-26T06:06:42.604Z,77.81
2018-07-26T06:09:11.117Z,77.53
2018-07-26T06:11:38.994Z,77.28
2018-07-26T06:14:07.936Z,77.19
2018-07-26T06:16:36.291Z,77.00
2018-07-26T06:19:04.870Z,76.78
2018-07-26T06:21:33.252Z,76.48
2018-07-26T06:24:02.180Z,75.59
2018-07-26T06:26:30.535Z,75.19
2018-07-26T06:28:58.277Z,75.06
2018-07-26T06:31:29.171Z,74.91
2018-07-26T06:33:57.521Z,74.93
2018-07-26T06:36:25.261Z,74.91
2018-07-26T06:38:54.175Z,74.72
2018-07-26T06:41:21.919Z,74.42
2018-07-26T06:43:50.248Z,74.05
2018-07-26T06:46:19.165Z,74.02
2018-07-26T06:51:59.198Z,72.90
2018-07-26T06:54:27.539Z,72.21
2018-07-26T06:56:57.376Z,71.13
2018-07-26T06:59:25.120Z,70.00
2018-07-26T07:01:53.427Z,69.37
2018-07-26T07:04:22.329Z,69.64
2018-07-26T07:06:50.657Z,69.22
2018-07-26T07:09:19.008Z,69.17
2018-07-26T07:11:47.325Z,68.85
2018-07-26T07:14:15.641Z,68.32
2018-07-26T07:16:44.008Z,67.51
2018-07-26T07:19:12.327Z,66.92
2018-07-26T07:21:41.526Z,65.98
2018-07-26T07:24:09.257Z,65.68
2018-07-26T07:26:38.194Z,65.39
2018-07-26T07:29:06.517Z,64.97
2018-07-26T07:31:34.850Z,64.85
2018-07-26T07:34:02.614Z,64.92
2018-07-26T07:36:31.522Z,64.56
2018-07-26T07:38:59.452Z,64.72
2018-07-26T07:41:28.184Z,64.91
2018-07-26T07:46:54.817Z,62.48
2018-07-26T07:49:23.725Z,60.82
2018-07-26T07:51:52.105Z,59.97
2018-07-26T07:54:19.845Z,59.80
2018-07-26T07:56:48.198Z,58.90
2018-07-26T07:59:16.716Z,58.30
2018-07-26T08:01:44.981Z,58.82
2018-07-26T08:04:13.609Z,59.10
2018-07-26T08:06:42.237Z,59.27
2018-07-26T08:09:09.958Z,58.91
2018-07-26T08:11:38.864Z,59.43
2018-07-26T08:14:07.196Z,58.75
2018-07-26T08:16:35.523Z,58.95
2018-07-26T08:19:03.847Z,58.54
2018-07-26T08:21:32.168Z,58.25
2018-07-26T08:24:00.506Z,57.80
2018-07-26T08:26:28.834Z,57.55
2018-07-26T08:28:56.696Z,56.22
2018-07-26T08:31:25.234Z,56.48
2018-07-26T08:33:53.257Z,56.30
2018-07-26T08:36:22.153Z,56.90
2018-07-26T08:38:49.928Z,57.70
2018-07-26T08:41:18.815Z,58.01
2018-07-26T08:43:46.595Z,58.50
2018-07-26T08:46:15.264Z,58.28
2018-07-26T08:48:44.152Z,57.96
2018-07-26T08:51:11.978Z,58.11
2018-07-26T08:53:40.797Z,59.16
2018-07-26T08:56:08.537Z,59.45
2018-07-26T08:58:37.429Z,59.46
2018-07-26T09:01:05.794Z,59.79
2018-07-26T09:03:34.075Z,60.28
2018-07-26T09:06:01.825Z,60.45
2018-07-26T09:08:30.397Z,60.59
2018-07-26T09:10:58.535Z,60.59
2018-07-26T09:13:27.401Z,59.14
2018-07-26T09:15:55.694Z,59.15
2018-07-26T09:18:23.511Z,59.82
2018-07-26T09:20:52.374Z,59.56
2018-07-26T09:23:20.694Z,59.16
2018-07-26T09:25:48.429Z,59.42
2018-07-26T09:28:17.327Z,59.53
2018-07-26T09:30:45.064Z,59.40
2018-07-26T09:33:13.979Z,59.43
2018-07-26T09:35:42.293Z,59.17
2018-07-26T09:38:10.613Z,59.02
2018-07-26T09:40:45.506Z,58.97
2018-07-26T09:43:13.267Z,58.64
2018-07-26T09:45:42.764Z,58.81
2018-07-26T09:48:10.904Z,59.20
2018-07-26T09:50:39.446Z,59.47
2018-07-26T09:53:07.775Z,59.19
2018-07-26T09:55:35.300Z,57.03
2018-07-26T09:58:04.208Z,56.64
2018-07-26T10:00:32.534Z,55.32
2018-07-26T10:03:00.855Z,54.47
2018-07-26T10:05:29.418Z,54.03
2018-07-26T10:07:57.739Z,55.44
2018-07-26T10:10:25.520Z,55.03
2018-07-26T10:12:54.609Z,55.15
2018-07-26T10:15:22.733Z,54.51
2018-07-26T10:17:51.041Z,53.36
2018-07-26T10:20:19.427Z,53.87
2018-07-26T10:22:48.610Z,53.28
2018-07-26T10:25:15.963Z,53.58
2018-07-26T10:27:44.957Z,53.56
2018-07-26T10:30:13.285Z,53.07
2018-07-26T10:32:41.658Z,53.06
2018-07-26T10:35:09.393Z,52.74
2018-07-26T10:37:39.441Z,53.14
2018-07-26T10:40:07.790Z,52.37
2018-07-26T10:42:37.213Z,52.44
2018-07-26T10:45:05.313Z,53.04
2018-07-26T10:47:33.415Z,52.87
2018-07-26T10:50:02.548Z,52.32
2018-07-26T10:52:30.841Z,52.00
2018-07-26T10:55:02.719Z,52.17
2018-07-26T10:57:31.049Z,51.22
2018-07-26T10:59:59.400Z,50.53
2018-07-26T11:02:27.714Z,51.03
2018-07-26T11:04:55.749Z,51.56
2018-07-26T11:07:23.799Z,52.34
2018-07-26T11:09:52.721Z,52.62
2018-07-26T11:12:21.042Z,53.12
2018-07-26T11:14:49.353Z,53.02
2018-07-26T11:17:17.688Z,53.40
2018-07-26T11:19:46.024Z,53.43
2018-07-26T11:22:14.397Z,53.84
2018-07-26T11:24:42.739Z,54.00
2018-07-26T11:27:12.068Z,53.40
2018-07-26T11:29:40.440Z,53.56
2018-07-26T11:32:08.124Z,54.46
2018-07-26T11:34:37.038Z,54.27
2018-07-26T11:37:05.243Z,53.60
2018-07-26T11:39:33.717Z,54.22
2018-07-26T11:42:01.454Z,53.50
2018-07-26T11:44:30.353Z,53.86
2018-07-26T11:46:58.102Z,54.21
2018-07-26T11:49:27.016Z,54.44
2018-07-26T11:51:55.383Z,53.72
2018-07-26T11:54:23.114Z,53.94
2018-07-26T11:56:52.055Z,53.84
2018-07-26T11:59:39.814Z,54.16
2018-07-26T12:02:07.711Z,54.06
2018-07-26T12:04:36.044Z,53.51
2018-07-26T12:07:04.357Z,53.39
2018-07-26T12:09:33.267Z,53.06
2018-07-26T12:12:01.018Z,52.12
2018-07-26T12:14:29.331Z,52.10
2018-07-26T12:16:58.252Z,51.93
2018-07-26T12:19:26.807Z,50.87
2018-07-26T12:21:55.152Z,50.84
2018-07-26T12:24:23.509Z,50.40
2018-07-26T12:26:51.915Z,50.25
2018-07-26T12:29:19.604Z,50.26
2018-07-26T12:31:48.518Z,50.33
2018-07-26T12:34:16.845Z,49.40
2018-07-26T12:36:45.192Z,49.47
2018-07-26T12:39:13.007Z,49.22
2018-07-26T12:41:42.714Z,49.33
2018-07-26T12:44:10.555Z,48.13
2018-07-26T12:46:39.778Z,47.26
2018-07-26T12:49:08.094Z,46.02
2018-07-26T12:51:36.472Z,45.72
2018-07-26T12:54:06.693Z,45.24
2018-07-26T12:56:35.017Z,44.67
2018-07-26T12:59:03.573Z,44.50
2018-07-26T13:01:31.463Z,44.06
2018-07-26T13:04:00.236Z,43.07
2018-07-26T13:06:28.578Z,41.69
2018-07-26T13:08:56.905Z,41.07
2018-07-26T13:11:26.273Z,41.11
2018-07-26T13:13:54.609Z,39.76
2018-07-26T13:16:22.362Z,39.46
2018-07-26T13:18:51.287Z,39.91
2018-07-26T13:21:19.842Z,39.04
2018-07-26T13:23:47.958Z,39.33
2018-07-26T13:26:15.971Z,38.69
2018-07-26T13:28:44.825Z,38.88
2018-07-26T13:31:13.165Z,39.09
2018-07-26T13:33:41.524Z,38.44
2018-07-26T13:36:09.875Z,39.80
2018-07-26T13:38:38.965Z,39.87
2018-07-26T13:41:10.515Z,40.58
2018-07-26T13:43:39.470Z,40.78
2018-07-26T13:46:07.855Z,39.94
2018-07-26T13:48:36.148Z,40.36
2018-07-26T13:51:04.700Z,40.18
2018-07-26T13:53:32.797Z,40.38
2018-07-26T13:56:02.041Z,39.48
2018-07-26T13:58:30.435Z,39.56
2018-07-26T14:00:58.698Z,40.20
2018-07-26T14:03:27.049Z,39.46
2018-07-26T14:06:00.749Z,40.26
2018-07-26T14:08:28.367Z,40.44
2018-07-26T14:10:59.811Z,40.00
2018-07-26T14:13:30.697Z,38.98
2018-07-26T14:16:00.090Z,39.80
2018-07-26T14:21:31.257Z,39.84
2018-07-26T14:23:59.624Z,40.12
2018-07-26T14:26:28.008Z,39.22
2018-07-26T14:29:04.678Z,39.39
2018-07-26T14:31:33.700Z,38.97
2018-07-26T14:34:02.056Z,38.19
2018-07-26T14:36:32.159Z,37.67
2018-07-26T14:39:08.172Z,37.55
2018-07-26T14:41:37.329Z,37.00
2018-07-26T14:44:05.468Z,36.91
2018-07-26T14:46:33.796Z,36.68
2018-07-26T14:49:25.473Z,36.19
2018-07-26T14:51:36.076Z,36.33
2018-07-26T14:54:04.664Z,36.35
2018-07-26T14:56:32.588Z,36.43
2018-07-26T14:59:01.079Z,36.22
2018-07-26T15:01:29.428Z,35.48
2018-07-26T15:03:57.180Z,34.75
2018-07-26T15:06:26.098Z,34.64
2018-07-26T15:08:54.426Z,34.46
2018-07-26T15:14:26.556Z,34.61
2018-07-26T15:16:54.883Z,33.86
2018-07-26T15:19:23.203Z,33.44
2018-07-26T15:21:51.432Z,33.51
2018-07-26T15:24:19.870Z,33.49
2018-07-26T15:26:48.235Z,32.70
2018-07-26T15:29:16.577Z,32.51
2018-07-26T15:31:44.899Z,33.63
2018-07-26T15:34:12.647Z,32.65
2018-07-26T15:36:41.567Z,32.57
2018-07-26T15:39:10.815Z,32.83
2018-07-26T15:41:39.138Z,33.38
2018-07-26T15:44:06.940Z,33.42
2018-07-26T15:46:35.233Z,33.51
2018-07-26T15:49:03.557Z,33.37
2018-07-26T15:51:32.496Z,33.52
2018-07-26T15:54:00.784Z,33.45
2018-07-26T15:56:31.553Z,33.40
2018-07-26T15:58:59.864Z,33.59
2018-07-26T16:01:28.317Z,33.71
2018-07-26T16:03:56.496Z,33.92
2018-07-26T16:15:22.159Z,32.16
2018-07-26T16:17:51.378Z,31.83
2018-07-26T16:20:20.182Z,31.96
2018-07-26T16:22:48.506Z,32.36
2018-07-26T16:25:16.265Z,32.20
2018-07-26T16:27:45.193Z,32.77
2018-07-26T16:30:13.521Z,33.00
2018-07-26T16:32:41.877Z,32.98
2018-07-26T16:35:10.434Z,33.36
2018-07-26T16:37:38.179Z,34.20
2018-07-26T16:40:07.174Z,35.19
2018-07-26T16:42:34.851Z,35.58
2018-07-26T16:45:03.783Z,35.95
2018-07-26T16:47:31.542Z,37.20
2018-07-26T16:49:59.897Z,39.12
2018-07-26T16:52:28.219Z,41.27
2018-07-26T16:54:56.548Z,42.87
2018-07-26T16:57:25.456Z,44.59
2018-07-26T16:59:53.787Z,45.80
2018-07-26T17:02:22.054Z,46.91
2018-07-26T17:04:50.449Z,48.31
2018-07-26T17:07:18.582Z,49.03
2018-07-26T17:09:47.116Z,49.77
2018-07-26T17:12:15.476Z,50.33
2018-07-26T17:14:43.193Z,51.46
2018-07-26T17:17:12.103Z,52.01
2018-07-26T17:19:39.879Z,52.58
2018-07-26T17:22:09.117Z,53.31
2018-07-26T17:24:36.863Z,53.93
2018-07-26T17:27:05.776Z,54.84
2018-07-26T17:29:34.126Z,55.51
2018-07-26T17:32:02.472Z,55.63
2018-07-26T17:34:30.247Z,55.87
2018-07-26T17:36:59.159Z,56.36
2018-07-26T17:39:27.498Z,57.11
2018-07-26T17:41:56.230Z,57.62
2018-07-26T17:44:25.131Z,58.02
2018-07-26T17:46:53.459Z,58.25
2018-07-26T17:49:21.794Z,58.45
2018-07-26T17:51:50.106Z,58.52
2018-07-26T17:54:17.920Z,58.57
2018-07-26T17:56:51.219Z,58.94
2018-07-26T17:59:18.901Z,59.15
2018-07-26T18:01:47.799Z,59.39
2018-07-26T18:04:15.538Z,59.58
2018-07-26T18:06:43.873Z,59.60
2018-07-26T18:09:12.782Z,60.02
2018-07-26T18:11:41.093Z,60.37
2018-07-26T18:14:09.098Z,60.88
2018-07-26T18:16:37.965Z,61.28
2018-07-26T18:19:10.539Z,61.64
2018-07-26T18:21:37.810Z,62.07
2018-07-26T18:24:06.138Z,62.30
2018-07-26T18:26:33.972Z,62.62
2018-07-26T18:29:04.281Z,62.63
2018-07-26T18:31:30.725Z,62.78
2018-07-26T18:33:59.121Z,62.96
2018-07-26T18:36:27.834Z,63.14
2018-07-26T18:38:56.189Z,63.15
2018-07-26T18:41:25.307Z,63.12
2018-07-26T18:43:54.298Z,63.04
2018-07-26T18:46:22.541Z,63.20
2018-07-26T18:48:50.880Z,63.26
2018-07-26T18:51:19.208Z,63.27
2018-07-26T18:53:49.655Z,63.36
2018-07-26T18:56:16.505Z,63.33
2018-07-26T18:58:44.870Z,63.28
2018-07-26T19:01:13.196Z,63.53
2018-07-26T19:03:41.524Z,63.81
2018-07-26T19:06:09.866Z,63.80
2018-07-26T19:08:38.233Z,63.74
2018-07-26T19:11:05.942Z,63.75
2018-07-26T19:13:34.274Z,63.70
2018-07-26T19:16:02.631Z,63.81
2018-07-26T19:18:32.148Z,63.86
2018-07-26T19:20:59.292Z,63.90
2018-07-26T19:23:28.241Z,64.13
2018-07-26T19:25:56.611Z,63.93
2018-07-26T19:28:24.923Z,63.95
2018-07-26T19:30:53.260Z,63.91
2018-07-26T19:33:21.040Z,64.06
2018-07-26T19:35:49.940Z,64.16
2018-07-26T19:38:17.696Z,64.22
2018-07-26T19:40:46.015Z,64.27
2018-07-26T19:43:14.932Z,64.28
2018-07-26T19:45:43.267Z,64.48
2018-07-26T19:48:11.586Z,64.45
2018-07-26T19:50:39.319Z,64.41
2018-07-26T19:53:08.219Z,64.46
2018-07-26T19:55:35.969Z,64.50
2018-07-26T19:58:04.312Z,64.63
2018-07-26T20:00:32.639Z,64.60
2018-07-26T20:03:01.568Z,64.89
2018-07-26T20:05:29.305Z,64.96
2018-07-26T20:07:57.822Z,64.88
2018-07-26T20:10:26.555Z,64.77
2018-07-26T20:12:54.306Z,64.54
2018-07-26T20:15:23.209Z,64.36
2018-07-26T20:17:52.237Z,64.43
2018-07-26T20:20:21.149Z,64.42
2018-07-26T20:22:48.903Z,64.49
2018-07-26T20:25:32.035Z,64.49
2018-07-26T20:28:00.412Z,64.47
2018-07-26T20:30:28.959Z,64.40
2018-07-26T20:32:57.362Z,64.37
2018-07-26T20:35:25.652Z,64.35
2018-07-26T20:37:54.009Z,64.37
2018-07-26T20:40:21.755Z,64.42
2018-07-26T20:42:50.821Z,64.59
2018-07-26T20:45:19.076Z,64.69
2018-07-26T20:47:47.639Z,64.78
2018-07-26T20:50:15.968Z,64.89
2018-07-26T20:52:44.530Z,64.85
2018-07-26T20:55:12.632Z,64.66
2018-07-26T20:57:40.957Z,64.42
2018-07-26T21:00:09.299Z,64.32
2018-07-26T21:02:37.645Z,64.14
2018-07-26T21:05:06.010Z,64.11
2018-07-26T21:07:34.302Z,64.23
2018-07-26T21:10:02.045Z,64.46
2018-07-26T21:12:31.093Z,64.50
2018-07-26T21:14:59.416Z,64.88
2018-07-26T21:17:34.302Z,65.54
2018-07-26T21:20:02.624Z,66.78
2018-07-26T21:22:30.976Z,67.99
2018-07-26T21:25:02.135Z,69.05
2018-07-26T21:27:31.057Z,69.96
2018-07-26T21:29:59.431Z,70.45
2018-07-26T21:32:27.164Z,70.92
2018-07-26T21:34:55.484Z,71.23
2018-07-26T21:37:24.404Z,71.30
2018-07-26T21:39:52.740Z,71.24
2018-07-26T21:42:20.512Z,71.46
2018-07-26T21:44:55.160Z,71.68
2018-07-26T21:47:22.936Z,71.90
2018-07-26T21:49:51.849Z,72.32
2018-07-26T21:52:19.603Z,72.75
2018-07-26T21:54:47.936Z,72.72
2018-07-26T21:57:16.846Z,72.87
2018-07-26T21:59:45.167Z,72.89
2018-07-26T22:02:12.951Z,72.93
2018-07-26T22:04:41.815Z,72.88
2018-07-26T22:07:10.137Z,73.08
2018-07-26T22:09:38.446Z,73.44
2018-07-26T22:12:10.291Z,74.02
2018-07-26T22:14:38.626Z,74.53
2018-07-26T22:17:06.876Z,74.88
2018-07-26T22:19:35.090Z,75.20
2018-07-26T22:22:03.427Z,75.45
2018-07-26T22:24:32.308Z,75.59
2018-07-26T22:27:00.638Z,75.64
2018-07-26T22:29:28.968Z,75.83
2018-07-26T22:31:56.697Z,75.97
2018-07-26T22:34:25.601Z,76.30
2018-07-26T22:36:53.921Z,76.53
2018-07-26T22:39:21.698Z,77.06
2018-07-26T22:41:50.034Z,76.94
2018-07-26T22:44:18.924Z,76.25
2018-07-26T22:46:47.254Z,75.56
2018-07-26T22:49:14.994Z,75.08
2018-07-26T22:51:43.884Z,75.20
2018-07-26T22:54:11.625Z,76.00
2018-07-26T22:56:39.963Z,76.65
2018-07-26T22:59:08.843Z,77.17
2018-07-26T23:01:36.577Z,77.39
2018-07-26T23:04:04.901Z,77.66
2018-07-26T23:06:33.255Z,77.81
2018-07-26T23:09:01.621Z,78.25
2018-07-26T23:11:30.485Z,78.72
2018-07-26T23:13:58.348Z,79.03
2018-07-26T23:16:27.136Z,79.31
2018-07-26T23:18:54.867Z,79.42
2018-07-26T23:21:23.760Z,79.50
2018-07-26T23:23:51.685Z,79.79
2018-07-26T23:26:20.394Z,80.26
2018-07-26T23:28:48.716Z,80.52
2018-07-26T23:31:16.458Z,80.32
2018-07-26T23:33:44.769Z,79.87
2018-07-26T23:36:13.668Z,80.39
2018-07-26T23:38:41.989Z,80.63
2018-07-26T23:41:09.760Z,80.63
2018-07-26T23:43:38.663Z,79.79
2018-07-26T23:46:06.982Z,78.95
2018-07-26T23:48:35.302Z,78.50
2018-07-26T23:51:03.635Z,78.58
2018-07-26T23:53:31.372Z,79.25
2018-07-26T23:55:59.701Z,79.66
2018-07-26T23:58:28.603Z,80.53
